createdAt,value
2017-11-27T00:02:09.569Z,5.00
2017-11-27T00:04:37.205Z,5.00
2017-11-27T00:07:04.722Z,5.10
2017-11-27T00:09:32.981Z,5.00
2017-11-27T00:12:00.510Z,5.00
2017-11-27T00:14:28.026Z,5.00
2017-11-27T00:16:56.292Z,5.00
2017-11-27T00:19:24.602Z,5.00
2017-11-27T00:21:52.100Z,5.00
2017-11-27T00:24:19.622Z,5.00
2017-11-27T00:26:47.126Z,5.00
2017-11-27T00:29:14.746Z,4.90
2017-11-27T00:31:42.277Z,5.00
2017-11-27T00:34:09.811Z,5.00
2017-11-27T00:36:38.076Z,4.90
2017-11-27T00:39:05.666Z,4.90
2017-11-27T00:41:33.197Z,5.00
2017-11-27T00:44:00.702Z,4.90
2017-11-27T00:46:28.232Z,4.90
2017-11-27T00:48:55.743Z,4.90
2017-11-27T00:51:23.257Z,5.00
2017-11-27T00:53:50.790Z,5.00
2017-11-27T00:56:28.934Z,4.90
2017-11-27T00:58:56.434Z,4.90
2017-11-27T01:01:24.714Z,4.90
2017-11-27T01:03:52.282Z,4.90
2017-11-27T01:06:20.582Z,4.90
2017-11-27T01:08:48.129Z,4.90
2017-11-27T01:11:16.441Z,4.90
2017-11-27T01:13:43.969Z,4.80
2017-11-27T01:16:11.524Z,4.90
2017-11-27T01:18:39.043Z,5.00
2017-11-27T01:21:06.551Z,5.00
2017-11-27T01:23:34.070Z,5.00
2017-11-27T01:26:01.562Z,5.10
2017-11-27T01:28:29.106Z,5.10
2017-11-27T01:30:57.363Z,5.20
2017-11-27T01:33:24.897Z,5.20
2017-11-27T01:35:52.417Z,5.20
2017-11-27T01:38:19.941Z,5.20
2017-11-27T01:40:48.208Z,5.30
2017-11-27T01:43:15.801Z,5.30
2017-11-27T01:45:43.305Z,5.30
2017-11-27T01:48:10.906Z,5.30
2017-11-27T01:50:39.193Z,5.30
2017-11-27T01:53:06.763Z,5.30
2017-11-27T01:55:34.322Z,5.20
2017-11-27T01:58:01.823Z,5.20
2017-11-27T02:00:29.359Z,5.10
2017-11-27T02:02:56.868Z,5.10
2017-11-27T02:05:25.179Z,5.10
2017-11-27T02:07:52.709Z,5.10
2017-11-27T02:10:20.969Z,5.00
2017-11-27T02:12:49.254Z,4.90
2017-11-27T02:15:17.517Z,4.90
2017-11-27T02:17:45.811Z,4.90
2017-11-27T02:20:13.391Z,4.90
2017-11-27T02:22:40.942Z,4.80
2017-11-27T02:25:08.447Z,4.80
2017-11-27T02:27:35.933Z,4.80
2017-11-27T02:30:04.235Z,4.80
2017-11-27T02:32:31.735Z,4.80
2017-11-27T02:34:59.246Z,4.70
2017-11-27T02:37:26.777Z,4.60
2017-11-27T02:39:55.058Z,4.50
2017-11-27T02:42:23.359Z,4.50
2017-11-27T02:44:50.971Z,4.50
2017-11-27T02:47:20.003Z,4.50
2017-11-27T02:49:47.521Z,4.50
2017-11-27T02:52:15.031Z,4.50
2017-11-27T02:54:42.535Z,4.50
2017-11-27T02:57:10.063Z,4.40
2017-11-27T02:59:37.565Z,4.50
2017-11-27T03:02:05.891Z,4.40
2017-11-27T03:04:33.387Z,4.40
2017-11-27T03:07:00.885Z,4.40
2017-11-27T03:09:28.434Z,4.30
2017-11-27T03:11:56.688Z,4.30
2017-11-27T03:14:24.993Z,4.30
2017-11-27T03:16:52.542Z,4.30
2017-11-27T03:19:20.795Z,4.30
2017-11-27T03:21:49.085Z,4.30
2017-11-27T03:24:16.588Z,4.30
2017-11-27T03:26:44.123Z,4.30
2017-11-27T03:29:11.626Z,4.30
2017-11-27T03:31:39.162Z,4.30
2017-11-27T03:34:06.671Z,4.30
2017-11-27T03:36:34.951Z,4.30
2017-11-27T03:39:03.242Z,4.20
2017-11-27T03:41:30.797Z,4.30
2017-11-27T03:43:58.313Z,4.20
2017-11-27T03:46:25.818Z,4.30
2017-11-27T03:48:53.350Z,4.30
2017-11-27T03:51:21.655Z,4.30
2017-11-27T03:53:49.202Z,4.30
2017-11-27T03:56:16.800Z,4.20
2017-11-27T03:58:44.310Z,4.30
2017-11-27T04:01:12.600Z,4.30
2017-11-27T04:03:40.095Z,4.20
2017-11-27T04:06:07.631Z,4.20
2017-11-27T04:08:35.135Z,4.20
2017-11-27T04:11:03.431Z,4.10
2017-11-27T04:13:31.715Z,4.10
2017-11-27T04:15:59.201Z,4.10
2017-11-27T04:18:26.731Z,4.10
2017-11-27T04:20:54.221Z,4.10
2017-11-27T04:23:21.746Z,4.00
2017-11-27T04:25:49.266Z,4.00
2017-11-27T04:28:16.881Z,4.00
2017-11-27T04:30:44.398Z,4.00
2017-11-27T04:33:12.670Z,3.90
2017-11-27T04:35:40.982Z,4.00
2017-11-27T04:38:08.523Z,3.90
2017-11-27T04:40:36.033Z,4.00
2017-11-27T04:43:03.551Z,4.00
2017-11-27T04:45:31.046Z,3.90
2017-11-27T04:47:58.590Z,3.90
2017-11-27T04:50:26.087Z,3.90
2017-11-27T04:52:53.595Z,3.90
2017-11-27T04:55:21.120Z,3.80
2017-11-27T04:57:49.378Z,3.80
2017-11-27T05:00:16.897Z,3.80
2017-11-27T05:02:44.401Z,3.90
2017-11-27T05:05:12.705Z,3.90
2017-11-27T05:07:40.258Z,3.90
2017-11-27T05:10:07.764Z,3.90
2017-11-27T05:12:36.809Z,3.90
2017-11-27T05:15:04.306Z,3.90
2017-11-27T05:17:31.822Z,3.90
2017-11-27T05:19:59.368Z,3.90
2017-11-27T05:22:26.959Z,3.90
2017-11-27T05:24:54.450Z,3.90
2017-11-27T05:27:21.970Z,3.90
2017-11-27T05:29:49.473Z,3.90
2017-11-27T05:32:16.991Z,3.90
2017-11-27T05:34:44.509Z,3.90
2017-11-27T05:37:12.784Z,3.90
2017-11-27T05:39:41.082Z,3.90
2017-11-27T05:42:08.585Z,3.90
2017-11-27T05:44:36.098Z,4.00
2017-11-27T05:47:03.639Z,4.10
2017-11-27T05:49:31.138Z,4.10
2017-11-27T05:51:58.651Z,4.10
2017-11-27T05:54:26.915Z,4.20
2017-11-27T05:56:55.203Z,4.30
2017-11-27T05:59:22.694Z,4.20
2017-11-27T06:01:50.189Z,4.20
2017-11-27T06:04:17.716Z,4.20
2017-11-27T06:06:45.248Z,4.20
2017-11-27T06:09:12.778Z,4.20
2017-11-27T06:11:41.055Z,4.20
2017-11-27T06:14:09.313Z,4.20
2017-11-27T06:16:38.337Z,4.20
2017-11-27T06:19:05.850Z,4.20
2017-11-27T06:21:33.466Z,4.30
2017-11-27T06:24:01.004Z,4.30
2017-11-27T06:26:29.261Z,4.30
2017-11-27T06:28:56.761Z,4.30
2017-11-27T06:31:24.302Z,4.30
2017-11-27T06:33:51.806Z,4.20
2017-11-27T06:36:19.285Z,4.10
2017-11-27T06:38:46.803Z,4.00
2017-11-27T06:41:14.313Z,4.00
2017-11-27T06:43:42.627Z,4.00
2017-11-27T06:46:10.131Z,4.00
2017-11-27T06:48:37.640Z,4.00
2017-11-27T06:51:05.159Z,4.00
2017-11-27T06:53:33.439Z,4.00
2017-11-27T06:56:01.746Z,4.00
2017-11-27T06:58:29.270Z,3.90
2017-11-27T07:00:57.587Z,3.90
2017-11-27T07:03:25.077Z,3.80
2017-11-27T07:05:52.585Z,3.80
2017-11-27T07:08:20.126Z,3.80
2017-11-27T07:10:47.655Z,3.90
2017-11-27T07:13:15.171Z,3.90
2017-11-27T07:15:42.702Z,3.90
2017-11-27T07:18:10.968Z,3.90
2017-11-27T07:20:39.282Z,3.90
2017-11-27T07:23:06.784Z,3.90
2017-11-27T07:25:34.297Z,4.00
2017-11-27T07:28:01.824Z,4.00
2017-11-27T07:30:30.102Z,4.00
2017-11-27T07:32:58.369Z,4.00
2017-11-27T07:35:26.703Z,4.00
2017-11-27T07:37:59.910Z,4.00
2017-11-27T07:40:27.433Z,4.00
2017-11-27T07:42:54.971Z,4.00
2017-11-27T07:45:22.529Z,4.10
2017-11-27T07:47:50.022Z,4.20
2017-11-27T07:50:17.534Z,4.30
2017-11-27T07:52:45.813Z,4.30
2017-11-27T07:55:13.329Z,4.20
2017-11-27T07:57:40.850Z,4.20
2017-11-27T08:00:08.351Z,4.30
2017-11-27T08:02:35.882Z,4.30
2017-11-27T08:05:03.408Z,4.40
2017-11-27T08:07:30.944Z,4.50
2017-11-27T08:09:59.251Z,4.70
2017-11-27T08:12:26.770Z,4.70
2017-11-27T08:14:55.077Z,4.70
2017-11-27T08:17:22.571Z,4.60
2017-11-27T08:19:50.117Z,4.70
2017-11-27T08:22:17.606Z,4.70
2017-11-27T08:24:45.206Z,4.70
2017-11-27T08:27:12.734Z,4.70
2017-11-27T08:29:40.229Z,4.70
2017-11-27T08:32:07.762Z,4.80
2017-11-27T08:34:36.020Z,4.90
2017-11-27T08:37:03.631Z,4.90
2017-11-27T08:39:31.150Z,5.10
2017-11-27T08:41:59.421Z,5.40
2017-11-27T08:44:27.748Z,5.40
2017-11-27T08:46:55.257Z,5.40
2017-11-27T08:49:22.783Z,5.40
2017-11-27T08:51:50.315Z,5.40
2017-11-27T08:54:17.814Z,5.50
2017-11-27T08:56:45.335Z,5.50
2017-11-27T08:59:12.835Z,5.50
2017-11-27T09:01:40.333Z,5.40
2017-11-27T09:04:07.886Z,5.40
2017-11-27T09:06:35.400Z,5.50
2017-11-27T09:09:03.006Z,5.50
2017-11-27T09:11:30.507Z,5.60
2017-11-27T09:13:58.046Z,5.60
2017-11-27T09:16:25.550Z,5.60
2017-11-27T09:18:53.857Z,5.60
2017-11-27T09:21:21.426Z,5.60
2017-11-27T09:23:48.924Z,5.70
2017-11-27T09:26:16.425Z,5.80
2017-11-27T09:28:43.937Z,5.90
2017-11-27T09:31:11.469Z,6.10
2017-11-27T09:33:39.007Z,6.20
2017-11-27T09:36:06.497Z,6.30
2017-11-27T09:38:34.024Z,6.60
2017-11-27T09:41:01.543Z,6.90
2017-11-27T09:43:29.856Z,7.20
2017-11-27T09:45:57.355Z,7.20
2017-11-27T09:48:24.872Z,7.30
2017-11-27T09:50:52.392Z,7.30
2017-11-27T09:53:20.715Z,7.20
2017-11-27T09:55:48.237Z,7.20
2017-11-27T09:58:16.527Z,7.60
2017-11-27T10:00:44.074Z,7.60
2017-11-27T10:03:12.355Z,7.70
2017-11-27T10:05:39.890Z,7.70
2017-11-27T10:08:08.159Z,7.50
2017-11-27T10:10:35.682Z,7.50
2017-11-27T10:13:03.207Z,7.40
2017-11-27T10:15:30.730Z,7.40
2017-11-27T10:17:58.243Z,7.30
2017-11-27T10:20:25.750Z,7.20
2017-11-27T10:22:54.095Z,7.10
2017-11-27T10:25:21.636Z,7.10
2017-11-27T10:27:50.005Z,7.20
2017-11-27T10:30:17.522Z,7.20
2017-11-27T10:32:45.022Z,7.10
2017-11-27T10:35:12.583Z,7.00
2017-11-27T10:37:40.078Z,7.00
2017-11-27T10:40:07.619Z,6.90
2017-11-27T10:42:35.114Z,6.80
2017-11-27T10:45:03.425Z,6.80
2017-11-27T10:47:30.968Z,6.70
2017-11-27T10:49:58.474Z,6.70
2017-11-27T10:52:25.997Z,6.60
2017-11-27T10:54:53.506Z,6.60
2017-11-27T10:57:21.024Z,6.50
2017-11-27T10:59:48.558Z,6.50
2017-11-27T11:02:16.131Z,6.40
2017-11-27T11:04:43.666Z,6.30
2017-11-27T11:07:11.926Z,6.30
2017-11-27T11:09:40.221Z,6.30
2017-11-27T11:12:07.764Z,6.30
2017-11-27T11:14:36.060Z,6.30
2017-11-27T11:17:03.578Z,6.30
2017-11-27T11:19:31.862Z,6.40
2017-11-27T11:21:59.387Z,6.40
2017-11-27T11:24:26.892Z,6.40
2017-11-27T11:26:55.257Z,6.40
2017-11-27T11:29:23.560Z,6.40
2017-11-27T11:31:51.107Z,6.40
2017-11-27T11:34:18.648Z,6.50
2017-11-27T11:36:46.927Z,6.40
2017-11-27T11:39:15.252Z,6.50
2017-11-27T11:41:42.758Z,6.50
2017-11-27T11:44:11.076Z,6.50
2017-11-27T11:46:38.634Z,6.50
2017-11-27T11:49:06.301Z,6.50
2017-11-27T11:51:33.829Z,6.60
2017-11-27T11:54:02.109Z,6.70
2017-11-27T11:56:30.027Z,6.70
2017-11-27T11:58:57.627Z,6.60
2017-11-27T12:01:25.894Z,6.80
2017-11-27T12:03:53.425Z,6.80
2017-11-27T12:06:20.958Z,6.90
2017-11-27T12:08:48.466Z,7.00
2017-11-27T12:11:16.789Z,7.00
2017-11-27T12:13:44.422Z,7.00
2017-11-27T12:16:12.716Z,7.00
2017-11-27T12:18:40.386Z,7.10
2017-11-27T12:21:07.924Z,7.20
2017-11-27T12:23:35.470Z,7.20
2017-11-27T12:26:03.005Z,7.10
2017-11-27T12:28:30.513Z,7.20
2017-11-27T12:30:58.034Z,7.30
2017-11-27T12:33:25.565Z,7.40
2017-11-27T12:35:53.109Z,7.60
2017-11-27T12:38:20.762Z,7.80
2017-11-27T12:40:48.412Z,7.90
2017-11-27T12:43:15.950Z,7.90
2017-11-27T12:45:43.467Z,7.90
2017-11-27T12:48:11.001Z,7.80
2017-11-27T12:50:38.561Z,7.70
2017-11-27T12:53:06.069Z,7.70
2017-11-27T12:55:33.583Z,7.70
2017-11-27T12:58:01.207Z,7.60
2017-11-27T13:00:28.718Z,7.60
2017-11-27T13:02:56.275Z,7.50
2017-11-27T13:05:23.897Z,7.40
2017-11-27T13:07:51.415Z,7.40
2017-11-27T13:10:18.950Z,7.50
2017-11-27T13:12:46.478Z,7.50
2017-11-27T13:15:14.015Z,7.50
2017-11-27T13:17:41.547Z,7.50
2017-11-27T13:20:09.120Z,7.50
2017-11-27T13:22:36.674Z,7.60
2017-11-27T13:25:04.202Z,7.60
2017-11-27T13:27:31.800Z,7.60
2017-11-27T13:29:59.376Z,7.40
2017-11-27T13:32:26.917Z,7.30
2017-11-27T13:34:54.459Z,7.40
2017-11-27T13:37:21.982Z,7.40
2017-11-27T13:39:49.537Z,7.40
2017-11-27T13:42:17.060Z,7.50
2017-11-27T13:44:44.571Z,7.50
2017-11-27T13:47:12.867Z,7.50
2017-11-27T13:49:40.446Z,7.50
2017-11-27T13:52:07.965Z,7.50
2017-11-27T13:54:36.258Z,7.30
2017-11-27T13:57:03.809Z,7.30
2017-11-27T13:59:32.222Z,7.20
2017-11-27T14:01:59.781Z,7.20
2017-11-27T14:04:27.352Z,7.20
2017-11-27T14:06:54.853Z,7.10
2017-11-27T14:09:22.393Z,7.10
2017-11-27T14:11:49.934Z,7.10
2017-11-27T14:14:17.466Z,7.10
2017-11-27T14:16:44.984Z,7.10
2017-11-27T14:19:13.300Z,7.00
2017-11-27T14:21:40.810Z,7.00
2017-11-27T14:24:08.379Z,7.10
2017-11-27T14:26:36.656Z,7.10
2017-11-27T14:29:04.959Z,7.00
2017-11-27T14:31:32.478Z,7.00
2017-11-27T14:33:59.983Z,6.90
2017-11-27T14:36:27.653Z,6.90
2017-11-27T14:38:55.157Z,6.90
2017-11-27T14:41:22.699Z,6.90
2017-11-27T14:43:50.224Z,6.80
2017-11-27T14:46:17.732Z,6.80
2017-11-27T14:48:46.046Z,6.80
2017-11-27T14:51:13.547Z,6.80
2017-11-27T14:53:41.108Z,6.80
2017-11-27T14:56:08.634Z,6.80
2017-11-27T14:58:36.161Z,6.80
2017-11-27T15:01:03.685Z,6.70
2017-11-27T15:03:31.347Z,6.80
2017-11-27T15:05:58.889Z,6.80
2017-11-27T15:08:26.404Z,6.80
2017-11-27T15:10:53.944Z,6.80
2017-11-27T15:13:22.241Z,6.80
2017-11-27T15:15:49.786Z,6.80
2017-11-27T15:18:18.058Z,6.90
2017-11-27T15:20:46.457Z,6.80
2017-11-27T15:23:13.990Z,6.80
2017-11-27T15:25:42.278Z,6.80
2017-11-27T15:28:09.796Z,6.80
2017-11-27T15:30:37.335Z,6.80
2017-11-27T15:33:05.599Z,6.80
2017-11-27T15:35:33.115Z,6.80
2017-11-27T15:38:01.427Z,6.70
2017-11-27T15:40:28.971Z,6.70
2017-11-27T15:42:56.531Z,6.80
2017-11-27T15:45:24.025Z,6.80
2017-11-27T15:47:51.571Z,6.80
2017-11-27T15:50:19.084Z,6.80
2017-11-27T15:52:46.626Z,6.70
2017-11-27T15:55:14.890Z,6.70
2017-11-27T15:57:42.402Z,6.70
2017-11-27T16:00:09.935Z,6.70
2017-11-27T16:02:37.462Z,6.70
2017-11-27T16:05:05.019Z,6.70
2017-11-27T16:07:32.532Z,6.70
2017-11-27T16:10:00.054Z,6.70
2017-11-27T16:12:28.343Z,6.70
2017-11-27T16:14:55.876Z,6.70
2017-11-27T16:17:23.478Z,6.70
2017-11-27T16:19:50.997Z,6.70
2017-11-27T16:22:19.284Z,6.80
2017-11-27T16:24:47.549Z,6.70
2017-11-27T16:27:15.863Z,6.80
2017-11-27T16:29:43.415Z,6.70
2017-11-27T16:32:10.942Z,6.70
2017-11-27T16:34:39.264Z,6.70
2017-11-27T16:37:06.830Z,6.60
2017-11-27T16:39:34.334Z,6.70
2017-11-27T16:42:02.602Z,6.70
2017-11-27T16:44:30.120Z,6.60
2017-11-27T16:46:57.638Z,6.60
2017-11-27T16:49:25.942Z,6.60
2017-11-27T16:51:53.460Z,6.60
2017-11-27T16:54:21.735Z,6.60
2017-11-27T16:56:50.025Z,6.60
2017-11-27T16:59:18.299Z,6.50
2017-11-27T17:01:46.604Z,6.50
2017-11-27T17:04:14.103Z,6.50
2017-11-27T17:06:41.638Z,6.60
2017-11-27T17:09:09.161Z,6.60
2017-11-27T17:11:36.740Z,6.60
2017-11-27T17:14:04.322Z,6.60
2017-11-27T17:16:31.822Z,6.60
2017-11-27T17:19:00.116Z,6.70
2017-11-27T17:21:27.661Z,6.70
2017-11-27T17:23:55.222Z,6.80
2017-11-27T17:26:22.813Z,6.70
2017-11-27T17:28:50.372Z,6.70
2017-11-27T17:31:17.898Z,6.70
2017-11-27T17:33:45.413Z,6.70
2017-11-27T17:36:12.970Z,6.60
2017-11-27T17:38:40.534Z,6.60
2017-11-27T17:41:08.063Z,6.50
2017-11-27T17:43:35.620Z,6.50
2017-11-27T17:46:03.130Z,6.60
2017-11-27T17:48:31.402Z,6.70
2017-11-27T17:50:59.732Z,6.70
2017-11-27T17:53:27.315Z,6.70
2017-11-27T17:55:54.871Z,6.70
2017-11-27T17:58:22.383Z,6.70
2017-11-27T18:00:49.958Z,6.70
2017-11-27T18:03:17.523Z,6.70
2017-11-27T18:05:45.040Z,6.60
2017-11-27T18:08:13.365Z,6.60
2017-11-27T18:10:40.905Z,6.60
2017-11-27T18:13:08.524Z,6.60
2017-11-27T18:15:36.861Z,6.60
2017-11-27T18:18:04.429Z,6.60
2017-11-27T18:20:31.931Z,6.60
2017-11-27T18:22:59.488Z,6.60
2017-11-27T18:25:27.035Z,6.60
2017-11-27T18:27:55.377Z,6.60
2017-11-27T18:30:22.883Z,6.60
2017-11-27T18:32:50.398Z,6.60
2017-11-27T18:35:17.945Z,6.50
2017-11-27T18:37:45.481Z,6.60
2017-11-27T18:40:13.031Z,6.60
2017-11-27T18:42:40.548Z,6.60
2017-11-27T18:45:08.875Z,6.60
2017-11-27T18:47:36.397Z,6.60
2017-11-27T18:50:04.681Z,6.60
2017-11-27T18:52:32.239Z,6.60
2017-11-27T18:54:59.770Z,6.60
2017-11-27T18:57:27.318Z,6.60
2017-11-27T18:59:54.821Z,6.60
2017-11-27T19:02:22.349Z,6.60
2017-11-27T19:04:50.668Z,6.70
2017-11-27T19:07:18.314Z,6.60
2017-11-27T19:09:45.865Z,6.70
2017-11-27T19:12:13.424Z,6.70
2017-11-27T19:14:40.959Z,6.70
2017-11-27T19:17:09.246Z,6.60
2017-11-27T19:19:37.605Z,6.60
2017-11-27T19:22:05.129Z,6.60
2017-11-27T19:24:32.652Z,6.60
2017-11-27T19:27:00.200Z,6.60
2017-11-27T19:29:28.505Z,6.60
2017-11-27T19:31:56.063Z,6.70
2017-11-27T19:34:23.594Z,6.60
2017-11-27T19:36:51.899Z,6.60
2017-11-27T19:39:19.458Z,6.60
2017-11-27T19:41:47.004Z,6.60
2017-11-27T19:44:14.578Z,6.60
2017-11-27T19:46:42.117Z,6.60
2017-11-27T19:49:09.668Z,6.60
2017-11-27T19:51:37.248Z,6.60
2017-11-27T19:54:04.772Z,6.70
2017-11-27T19:56:33.078Z,6.80
2017-11-27T19:59:00.947Z,6.80
2017-11-27T20:01:28.525Z,6.80
2017-11-27T20:03:56.753Z,6.90
2017-11-27T20:06:24.319Z,6.90
2017-11-27T20:08:52.624Z,6.90
2017-11-27T20:11:20.256Z,6.90
2017-11-27T20:13:47.769Z,6.90
2017-11-27T20:16:15.292Z,6.90
2017-11-27T20:18:42.862Z,6.90
2017-11-27T20:21:10.516Z,6.90
2017-11-27T20:23:38.049Z,6.90
2017-11-27T20:26:05.568Z,6.90
2017-11-27T20:28:33.145Z,6.90
2017-11-27T20:31:01.467Z,6.90
2017-11-27T20:33:29.055Z,6.90
2017-11-27T20:35:56.617Z,6.90
2017-11-27T20:38:24.214Z,7.00
2017-11-27T20:40:51.745Z,6.90
2017-11-27T20:43:20.072Z,6.80
2017-11-27T20:45:47.630Z,6.80
2017-11-27T20:48:15.210Z,6.80
2017-11-27T20:50:42.729Z,6.80
2017-11-27T20:53:10.239Z,6.80
2017-11-27T20:55:37.788Z,6.90
2017-11-27T20:58:05.326Z,6.90
2017-11-27T21:00:32.963Z,6.90
2017-11-27T21:03:00.496Z,6.90
2017-11-27T21:05:28.783Z,7.00
2017-11-27T21:07:57.091Z,7.00
2017-11-27T21:10:24.625Z,7.00
2017-11-27T21:12:52.136Z,6.90
2017-11-27T21:15:19.688Z,6.90
2017-11-27T21:17:47.241Z,6.90
2017-11-27T21:20:14.759Z,7.00
2017-11-27T21:22:42.351Z,7.00
2017-11-27T21:25:09.866Z,6.90
2017-11-27T21:27:38.164Z,6.80
2017-11-27T21:30:05.716Z,6.80
2017-11-27T21:32:33.274Z,6.80
2017-11-27T21:35:00.809Z,6.80
2017-11-27T21:37:29.184Z,6.80
2017-11-27T21:39:57.477Z,6.80
2017-11-27T21:42:25.762Z,6.70
2017-11-27T21:44:53.313Z,6.70
2017-11-27T21:47:20.827Z,6.80
2017-11-27T21:49:48.365Z,6.70
2017-11-27T21:52:15.864Z,6.80
2017-11-27T21:54:44.141Z,6.80
2017-11-27T21:57:12.457Z,6.80
2017-11-27T21:59:39.994Z,6.80
2017-11-27T22:02:07.550Z,6.80
2017-11-27T22:04:35.070Z,6.80
2017-11-27T22:07:02.583Z,6.80
2017-11-27T22:09:30.123Z,6.80
2017-11-27T22:11:57.633Z,6.80
2017-11-27T22:14:25.283Z,6.80
2017-11-27T22:16:52.792Z,6.80
2017-11-27T22:19:21.094Z,6.80
2017-11-27T22:21:48.632Z,6.80
2017-11-27T22:24:16.149Z,6.80
2017-11-27T22:26:43.686Z,6.80
2017-11-27T22:29:11.234Z,6.80
2017-11-27T22:31:38.804Z,6.70
2017-11-27T22:34:06.337Z,6.80
2017-11-27T22:36:33.920Z,6.80
2017-11-27T22:39:01.609Z,6.80
2017-11-27T22:41:29.175Z,6.90
2017-11-27T22:43:56.696Z,6.90
2017-11-27T22:46:24.252Z,6.90
2017-11-27T22:48:51.767Z,6.90
2017-11-27T22:51:20.052Z,6.80
2017-11-27T22:53:47.614Z,6.80
2017-11-27T22:56:15.147Z,6.80
2017-11-27T22:58:42.653Z,6.80
2017-11-27T23:01:10.193Z,6.80
2017-11-27T23:03:37.688Z,6.80
2017-11-27T23:06:05.210Z,6.90
2017-11-27T23:08:32.726Z,6.90
2017-11-27T23:11:00.274Z,6.90
2017-11-27T23:13:27.818Z,6.90
2017-11-27T23:15:55.355Z,6.80
2017-11-27T23:18:22.899Z,6.80
2017-11-27T23:20:50.427Z,6.80
2017-11-27T23:23:18.723Z,6.80
2017-11-27T23:25:46.254Z,6.70
2017-11-27T23:28:14.531Z,6.70
2017-11-27T23:30:42.064Z,6.70
2017-11-27T23:33:09.570Z,6.70
2017-11-27T23:35:37.143Z,6.70
2017-11-27T23:38:04.647Z,6.70
2017-11-27T23:40:32.157Z,6.70
2017-11-27T23:42:59.883Z,6.70
2017-11-27T23:45:28.162Z,6.70
2017-11-27T23:47:56.487Z,6.80
2017-11-27T23:50:23.999Z,6.70
2017-11-27T23:52:52.281Z,6.80
2017-11-27T23:55:19.862Z,6.80
2017-11-27T23:57:47.429Z,6.80
